createdAt,value
2022-08-10T00:01:34.401Z,23.10
2022-08-10T00:04:02.102Z,23.10
2022-08-10T00:06:28.846Z,23.00
2022-08-10T00:08:56.047Z,23.10
2022-08-10T00:11:22.923Z,23.00
2022-08-10T00:13:50.121Z,22.90
2022-08-10T00:16:17.264Z,22.90
2022-08-10T00:18:44.567Z,22.90
2022-08-10T00:21:11.438Z,22.90
2022-08-10T00:23:38.707Z,22.90
2022-08-10T00:26:06.570Z,22.80
2022-08-10T00:28:33.764Z,22.80
2022-08-10T00:31:00.543Z,22.80
2022-08-10T00:33:27.282Z,22.80
2022-08-10T00:35:53.990Z,22.70
2022-08-10T00:38:20.737Z,22.70
2022-08-10T00:40:47.585Z,22.60
2022-08-10T00:43:14.410Z,22.60
2022-08-10T00:45:41.232Z,22.60
2022-08-10T00:48:09.434Z,22.50
2022-08-10T00:50:36.304Z,22.50
2022-08-10T00:53:03.476Z,22.50
2022-08-10T00:55:30.841Z,22.40
2022-08-10T00:57:58.575Z,22.40
2022-08-10T01:00:25.553Z,22.40
2022-08-10T01:02:53.136Z,22.40
2022-08-10T01:05:21.422Z,22.30
2022-08-10T01:08:25.957Z,22.40
2022-08-10T01:12:47.050Z,22.30
2022-08-10T01:14:41.767Z,22.30
2022-08-10T01:17:17.987Z,22.30
2022-08-10T01:19:58.383Z,22.30
2022-08-10T01:22:51.066Z,22.30
2022-08-10T01:26:11.989Z,22.20
2022-08-10T01:28:50.040Z,22.20
2022-08-10T01:31:23.030Z,22.10
2022-08-10T01:33:58.591Z,22.10
2022-08-10T01:36:41.034Z,22.10
2022-08-10T01:39:08.283Z,22.00
2022-08-10T01:41:46.093Z,22.00
2022-08-10T01:44:23.829Z,22.00
2022-08-10T01:46:57.011Z,22.00
2022-08-10T01:49:26.833Z,21.90
2022-08-10T01:52:00.532Z,21.90
2022-08-10T01:54:29.771Z,21.80
2022-08-10T01:56:58.292Z,21.80
2022-08-10T01:59:31.069Z,21.80
2022-08-10T02:02:02.488Z,21.70
2022-08-10T02:04:31.234Z,21.70
2022-08-10T02:07:01.528Z,21.70
2022-08-10T02:09:31.802Z,21.60
2022-08-10T02:12:07.321Z,21.60
2022-08-10T02:14:52.101Z,21.60
2022-08-10T02:17:57.874Z,21.60
2022-08-10T02:20:15.228Z,21.60
2022-08-10T02:22:44.384Z,21.50
2022-08-10T02:25:42.360Z,21.60
2022-08-10T02:28:03.177Z,21.50
2022-08-10T02:30:30.936Z,21.50
2022-08-10T02:32:59.151Z,21.50
2022-08-10T02:35:27.806Z,21.50
2022-08-10T02:38:06.077Z,21.40
2022-08-10T02:45:10.988Z,21.50
2022-08-10T02:45:19.857Z,21.40
2022-08-10T02:46:31.433Z,21.40
2022-08-10T02:49:03.144Z,21.30
2022-08-10T02:52:07.257Z,21.30
2022-08-10T02:54:43.205Z,21.30
2022-08-10T02:57:18.548Z,21.30
2022-08-10T02:59:48.388Z,21.20
2022-08-10T03:02:39.627Z,21.20
2022-08-10T03:05:11.685Z,21.20
2022-08-10T03:07:55.197Z,21.20
2022-08-10T03:10:28.195Z,21.10
2022-08-10T03:13:00.651Z,21.10
2022-08-10T03:15:29.484Z,21.10
2022-08-10T03:17:58.902Z,21.10
2022-08-10T03:20:37.993Z,21.10
2022-08-10T03:23:16.297Z,21.10
2022-08-10T03:25:53.263Z,21.10
2022-08-10T03:28:27.412Z,21.00
2022-08-10T03:30:56.006Z,21.00
2022-08-10T03:33:26.028Z,21.00
2022-08-10T03:36:40.168Z,20.90
2022-08-10T03:38:44.408Z,20.90
2022-08-10T03:41:16.210Z,20.90
2022-08-10T03:43:47.926Z,20.80
2022-08-10T03:46:17.025Z,20.80
2022-08-10T03:48:49.231Z,20.80
2022-08-10T03:51:18.743Z,20.90
2022-08-10T03:54:02.818Z,20.80
2022-08-10T03:56:37.906Z,20.80
2022-08-10T03:59:07.238Z,20.80
2022-08-10T04:02:45.979Z,20.80
2022-08-10T04:04:24.674Z,20.80
2022-08-10T04:06:55.390Z,20.80
2022-08-10T04:09:24.081Z,20.80
2022-08-10T04:11:50.884Z,20.70
2022-08-10T04:14:47.098Z,20.70
2022-08-10T04:17:04.418Z,20.60
2022-08-10T04:19:40.714Z,20.80
2022-08-10T04:22:17.679Z,20.80
2022-08-10T04:24:46.322Z,20.70
2022-08-10T04:27:14.688Z,20.80
2022-08-10T04:29:42.437Z,20.80
2022-08-10T04:32:10.557Z,20.90
2022-08-10T04:34:40.616Z,20.80
2022-08-10T04:37:09.621Z,20.70
2022-08-10T04:39:37.386Z,20.70
2022-08-10T04:42:04.813Z,20.80
2022-08-10T04:44:33.211Z,20.70
2022-08-10T04:46:59.967Z,20.70
2022-08-10T04:49:54.587Z,20.70
2022-08-10T04:52:14.828Z,20.70
2022-08-10T04:54:41.852Z,20.60
2022-08-10T04:57:08.885Z,20.60
2022-08-10T04:59:35.913Z,20.70
2022-08-10T05:02:28.434Z,20.70
2022-08-10T05:04:49.693Z,20.70
2022-08-10T05:07:18.105Z,20.70
2022-08-10T05:10:05.057Z,20.70
2022-08-10T05:12:38.682Z,20.70
2022-08-10T05:15:08.277Z,20.70
2022-08-10T05:17:36.404Z,20.80
2022-08-10T05:20:06.780Z,20.90
2022-08-10T05:22:40.285Z,20.80
2022-08-10T05:25:13.621Z,20.80
2022-08-10T05:27:41.535Z,20.80
2022-08-10T05:30:10.552Z,20.90
2022-08-10T05:32:57.841Z,20.90
2022-08-10T05:35:24.787Z,20.90
2022-08-10T05:38:09.558Z,20.90
2022-08-10T05:40:46.212Z,21.00
2022-08-10T05:43:18.759Z,21.00
2022-08-10T05:46:18.841Z,21.00
2022-08-10T05:48:54.321Z,21.10
2022-08-10T05:51:22.730Z,21.10
2022-08-10T05:54:00.823Z,21.20
2022-08-10T05:56:55.325Z,21.20
2022-08-10T06:00:35.329Z,21.30
2022-08-10T06:02:36.392Z,21.40
2022-08-10T06:05:15.737Z,21.50
2022-08-10T06:07:57.989Z,21.60
2022-08-10T06:10:32.767Z,21.60
2022-08-10T06:13:29.727Z,21.70
2022-08-10T06:16:05.949Z,21.80
2022-08-10T06:18:33.299Z,21.90
2022-08-10T06:21:01.504Z,21.90
2022-08-10T06:23:32.232Z,22.00
2022-08-10T06:26:12.027Z,22.10
2022-08-10T06:29:02.073Z,22.20
2022-08-10T06:31:49.091Z,22.30
2022-08-10T06:34:42.408Z,22.40
2022-08-10T06:37:11.134Z,22.50
2022-08-10T06:39:37.977Z,22.60
2022-08-10T06:42:20.342Z,22.70
2022-08-10T06:44:56.678Z,22.70
2022-08-10T06:47:28.862Z,22.80
2022-08-10T06:50:02.707Z,22.90
2022-08-10T06:52:33.607Z,23.00
2022-08-10T06:55:05.362Z,23.00
2022-08-10T06:57:37.355Z,23.10
2022-08-10T07:00:05.610Z,23.20
2022-08-10T07:02:54.796Z,23.30
2022-08-10T07:05:25.667Z,23.40
2022-08-10T07:07:55.652Z,23.50
2022-08-10T07:10:25.215Z,23.60
2022-08-10T07:13:09.989Z,23.60
2022-08-10T07:16:00.011Z,23.70
2022-08-10T07:18:26.220Z,23.80
2022-08-10T07:20:57.242Z,23.90
2022-08-10T07:23:57.976Z,24.00
2022-08-10T07:26:14.205Z,24.10
2022-08-10T07:28:46.177Z,24.10
2022-08-10T07:31:54.462Z,24.20
2022-08-10T07:34:09.364Z,24.40
2022-08-10T07:36:39.303Z,24.60
2022-08-10T07:39:07.232Z,24.60
2022-08-10T07:41:39.931Z,24.70
2022-08-10T07:44:09.042Z,24.80
2022-08-10T07:46:42.195Z,24.90
2022-08-10T07:49:15.479Z,24.90
2022-08-10T07:51:54.543Z,25.10
2022-08-10T07:54:25.275Z,25.10
2022-08-10T07:56:55.573Z,25.20
2022-08-10T07:59:39.329Z,25.30
2022-08-10T08:02:13.657Z,25.40
2022-08-10T08:04:42.355Z,25.50
2022-08-10T08:07:09.187Z,25.60
2022-08-10T08:09:38.308Z,25.60
2022-08-10T08:12:27.080Z,25.70
2022-08-10T08:14:55.281Z,25.80
2022-08-10T08:17:24.400Z,25.90
2022-08-10T08:20:04.681Z,26.10
2022-08-10T08:24:05.292Z,26.20
2022-08-10T08:25:24.400Z,26.30
2022-08-10T08:27:53.653Z,26.40
2022-08-10T08:30:27.584Z,26.40
2022-08-10T08:32:56.353Z,26.50
2022-08-10T08:35:24.267Z,26.70
2022-08-10T08:38:32.004Z,26.80
2022-08-10T08:40:44.424Z,26.90
2022-08-10T08:43:31.675Z,27.00
2022-08-10T08:46:19.082Z,27.10
2022-08-10T08:48:54.799Z,27.20
2022-08-10T08:52:11.376Z,27.30
2022-08-10T08:54:57.107Z,27.30
2022-08-10T08:58:01.615Z,27.40
2022-08-10T09:00:46.219Z,27.50
2022-08-10T09:03:46.362Z,27.60
2022-08-10T09:06:29.768Z,27.70
2022-08-10T09:09:15.488Z,27.80
2022-08-10T09:12:01.881Z,27.90
2022-08-10T09:14:38.295Z,28.00
2022-08-10T09:17:31.100Z,28.10
2022-08-10T09:20:19.336Z,28.30
2022-08-10T09:23:20.227Z,28.40
2022-08-10T09:25:58.866Z,28.50
2022-08-10T09:28:37.113Z,28.60
2022-08-10T09:31:21.916Z,28.60
2022-08-10T09:36:23.613Z,28.70
2022-08-10T09:38:00.774Z,28.80
2022-08-10T09:41:00.370Z,29.00
2022-08-10T09:43:36.145Z,29.20
2022-08-10T09:46:33.956Z,29.40
2022-08-10T09:49:53.232Z,29.50
2022-08-10T09:52:31.859Z,29.60
2022-08-10T09:55:17.025Z,29.90
2022-08-10T09:58:06.117Z,30.10
2022-08-10T10:00:45.676Z,30.30
2022-08-10T10:03:17.315Z,30.40
2022-08-10T10:06:12.277Z,30.60
2022-08-10T10:09:10.902Z,30.70
2022-08-10T10:12:09.938Z,30.90
2022-08-10T10:15:24.976Z,31.10
2022-08-10T10:18:07.743Z,31.30
2022-08-10T10:21:54.193Z,31.50
2022-08-10T10:24:41.275Z,31.70
2022-08-10T10:27:21.380Z,32.10
2022-08-10T10:29:58.001Z,32.30
2022-08-10T10:32:53.433Z,32.50
2022-08-10T10:35:54.920Z,32.70
2022-08-10T10:38:26.807Z,32.70
2022-08-10T10:41:07.624Z,32.80
2022-08-10T10:44:05.088Z,32.90
2022-08-10T10:47:06.542Z,33.00
2022-08-10T10:49:48.315Z,33.10
2022-08-10T10:52:39.142Z,33.30
2022-08-10T10:55:16.006Z,33.50
2022-08-10T10:58:00.970Z,33.80
2022-08-10T11:00:54.339Z,34.10
2022-08-10T11:03:41.499Z,34.30
2022-08-10T11:06:51.229Z,34.60
2022-08-10T11:10:03.811Z,34.90
2022-08-10T11:12:32.124Z,35.20
2022-08-10T11:15:11.830Z,35.40
2022-08-10T11:17:57.125Z,35.60
2022-08-10T11:20:38.507Z,35.80
2022-08-10T11:23:34.731Z,36.10
2022-08-10T11:26:11.764Z,36.30
2022-08-10T11:28:48.138Z,36.50
2022-08-10T11:31:27.423Z,36.80
2022-08-10T11:34:49.156Z,37.40
2022-08-10T11:37:02.799Z,38.30
2022-08-10T11:39:49.392Z,39.30
2022-08-10T11:42:57.889Z,40.30
2022-08-10T11:45:36.638Z,41.60
2022-08-10T11:48:52.806Z,43.30
2022-08-10T11:51:14.467Z,44.40
2022-08-10T11:54:00.889Z,45.50
2022-08-10T11:56:40.479Z,46.20
2022-08-10T11:59:26.187Z,47.00
2022-08-10T12:01:54.497Z,47.80
2022-08-10T12:04:22.908Z,48.50
2022-08-10T12:06:55.642Z,49.10
2022-08-10T12:10:10.529Z,49.80
2022-08-10T12:12:13.155Z,50.20
2022-08-10T12:15:03.317Z,50.60
2022-08-10T12:17:42.621Z,50.90
2022-08-10T12:20:24.157Z,51.40
2022-08-10T12:23:19.759Z,51.80
2022-08-10T12:25:58.755Z,52.10
2022-08-10T12:28:50.376Z,52.20
2022-08-10T12:31:34.435Z,52.70
2022-08-10T12:34:28.820Z,53.10
2022-08-10T12:37:12.487Z,53.40
2022-08-10T12:40:35.553Z,54.00
2022-08-10T12:44:06.788Z,54.10
2022-08-10T12:46:18.330Z,54.10
2022-08-10T12:49:11.740Z,54.20
2022-08-10T12:52:07.069Z,54.50
2022-08-10T12:54:37.996Z,54.80
2022-08-10T12:57:12.103Z,54.80
2022-08-10T12:59:58.010Z,54.70
2022-08-10T13:02:33.587Z,54.60
2022-08-10T13:05:04.469Z,54.80
2022-08-10T13:08:24.079Z,54.80
2022-08-10T13:10:23.268Z,54.80
2022-08-10T13:12:54.215Z,54.70
2022-08-10T13:15:48.173Z,54.50
2022-08-10T13:18:19.504Z,54.40
2022-08-10T13:20:52.304Z,54.20
2022-08-10T13:23:28.946Z,54.10
2022-08-10T13:25:58.396Z,54.00
2022-08-10T13:28:39.490Z,54.00
2022-08-10T13:31:16.772Z,54.00
2022-08-10T13:34:40.302Z,53.80
2022-08-10T13:36:47.409Z,53.50
2022-08-10T13:39:17.162Z,53.30
2022-08-10T13:41:46.780Z,53.10
2022-08-10T13:44:19.683Z,52.80
2022-08-10T13:46:54.588Z,52.30
2022-08-10T13:49:22.175Z,51.80
2022-08-10T13:51:53.873Z,51.50
2022-08-10T13:54:41.630Z,50.80
2022-08-10T13:57:11.420Z,50.00
2022-08-10T14:00:34.842Z,49.50
2022-08-10T14:02:38.860Z,48.90
2022-08-10T14:05:07.317Z,48.20
2022-08-10T14:07:38.873Z,47.50
2022-08-10T14:11:09.083Z,46.80
2022-08-10T14:13:09.949Z,46.20
2022-08-10T14:15:38.747Z,45.50
2022-08-10T14:18:08.272Z,45.10
2022-08-10T14:20:37.356Z,44.60
2022-08-10T14:23:10.673Z,44.20
2022-08-10T14:25:56.541Z,43.80
2022-08-10T14:28:31.451Z,43.60
2022-08-10T14:31:19.926Z,43.30
2022-08-10T14:33:54.400Z,42.80
2022-08-10T14:36:30.724Z,42.30
2022-08-10T14:38:59.760Z,41.90
2022-08-10T14:42:01.965Z,41.50
2022-08-10T14:44:18.946Z,41.00
2022-08-10T14:46:51.963Z,40.60
2022-08-10T14:49:26.313Z,40.30
2022-08-10T14:52:02.302Z,40.10
2022-08-10T14:54:32.284Z,39.70
2022-08-10T14:57:11.129Z,39.30
2022-08-10T15:00:25.481Z,38.90
2022-08-10T15:02:38.823Z,38.50
2022-08-10T15:05:09.852Z,38.10
2022-08-10T15:07:38.101Z,37.80
2022-08-10T15:10:09.141Z,37.60
2022-08-10T15:12:39.066Z,37.40
2022-08-10T15:15:10.689Z,37.20
2022-08-10T15:17:45.680Z,37.00
2022-08-10T15:20:20.558Z,36.70
2022-08-10T15:22:51.858Z,36.60
2022-08-10T15:25:25.222Z,36.40
2022-08-10T15:28:05.212Z,36.20
2022-08-10T15:30:42.726Z,36.00
2022-08-10T15:33:59.455Z,35.80
2022-08-10T15:36:40.092Z,35.70
2022-08-10T15:40:25.175Z,35.60
2022-08-10T15:42:18.470Z,35.40
2022-08-10T15:44:47.524Z,35.30
2022-08-10T15:47:45.943Z,35.20
2022-08-10T15:50:28.457Z,35.20
2022-08-10T15:53:15.772Z,35.10
2022-08-10T15:55:56.791Z,35.00
2022-08-10T15:58:47.676Z,35.00
2022-08-10T16:02:12.980Z,34.90
2022-08-10T16:04:35.324Z,34.80
2022-08-10T16:07:12.373Z,34.80
2022-08-10T16:10:23.636Z,34.70
2022-08-10T16:13:00.100Z,34.70
2022-08-10T16:15:29.874Z,34.70
2022-08-10T16:18:12.021Z,34.70
2022-08-10T16:20:54.758Z,34.60
2022-08-10T16:24:02.160Z,34.70
2022-08-10T16:26:46.792Z,34.70
2022-08-10T16:29:22.034Z,34.60
2022-08-10T16:31:58.532Z,34.50
2022-08-10T16:34:29.144Z,34.40
2022-08-10T16:37:02.474Z,34.40
2022-08-10T16:40:00.307Z,34.40
2022-08-10T16:42:29.900Z,34.30
2022-08-10T16:45:00.939Z,34.30
2022-08-10T16:47:29.585Z,34.30
2022-08-10T16:49:59.893Z,34.20
2022-08-10T16:52:29.204Z,34.20
2022-08-10T16:55:23.812Z,34.10
2022-08-10T16:57:56.696Z,34.10
2022-08-10T17:00:25.844Z,34.10
2022-08-10T17:02:57.081Z,34.10
2022-08-10T17:06:11.284Z,34.10
2022-08-10T17:08:17.507Z,34.10
2022-08-10T17:10:44.640Z,34.00
2022-08-10T17:13:14.865Z,34.00
2022-08-10T17:15:56.154Z,33.90
2022-08-10T17:18:29.199Z,33.90
2022-08-10T17:20:59.286Z,33.90
2022-08-10T17:23:30.684Z,33.90
2022-08-10T17:26:01.860Z,33.80
2022-08-10T17:28:34.880Z,33.80
2022-08-10T17:31:24.185Z,33.70
2022-08-10T17:34:18.335Z,33.70
2022-08-10T17:36:49.404Z,33.70
2022-08-10T17:39:20.651Z,33.60
2022-08-10T17:41:51.539Z,33.60
2022-08-10T17:44:19.692Z,33.60
2022-08-10T17:46:47.100Z,33.50
2022-08-10T17:49:16.500Z,33.40
2022-08-10T17:51:50.469Z,33.40
2022-08-10T17:54:31.926Z,33.40
2022-08-10T17:57:08.273Z,33.20
2022-08-10T17:59:37.458Z,33.20
2022-08-10T18:02:14.658Z,33.20
2022-08-10T18:04:48.487Z,33.10
2022-08-10T18:07:16.089Z,33.00
2022-08-10T18:09:49.731Z,32.90
2022-08-10T18:12:27.772Z,32.90
2022-08-10T18:15:04.263Z,32.80
2022-08-10T18:17:39.164Z,32.70
2022-08-10T18:20:08.699Z,32.60
2022-08-10T18:22:43.648Z,32.50
2022-08-10T18:25:23.528Z,32.40
2022-08-10T18:28:01.094Z,32.30
2022-08-10T18:30:35.851Z,32.20
2022-08-10T18:33:08.578Z,32.10
2022-08-10T18:35:35.996Z,32.10
2022-08-10T18:38:04.822Z,31.90
2022-08-10T18:40:36.026Z,31.80
2022-08-10T18:44:05.601Z,31.70
2022-08-10T18:45:56.876Z,31.60
2022-08-10T18:48:32.975Z,31.60
2022-08-10T18:51:05.577Z,31.40
2022-08-10T18:53:48.145Z,31.30
2022-08-10T18:56:21.083Z,31.20
2022-08-10T18:59:08.944Z,31.10
2022-08-10T19:01:54.017Z,31.10
2022-08-10T19:04:29.651Z,30.90
2022-08-10T19:07:18.225Z,30.90
2022-08-10T19:09:51.699Z,30.80
2022-08-10T19:12:30.605Z,30.70
2022-08-10T19:15:16.028Z,30.60
2022-08-10T19:18:28.124Z,30.50
2022-08-10T19:21:13.153Z,30.40
2022-08-10T19:24:02.863Z,30.30
2022-08-10T19:26:44.737Z,30.20
2022-08-10T19:30:09.520Z,30.10
2022-08-10T19:32:50.828Z,30.00
2022-08-10T19:36:04.516Z,29.90
2022-08-10T19:39:00.159Z,29.80
2022-08-10T19:41:44.686Z,29.70
2022-08-10T19:44:51.216Z,29.60
2022-08-10T19:47:30.337Z,29.50
2022-08-10T19:50:15.729Z,29.50
2022-08-10T19:53:02.021Z,29.40
2022-08-10T19:55:33.933Z,29.30
2022-08-10T19:58:00.605Z,29.30
2022-08-10T20:00:44.929Z,29.20
2022-08-10T20:03:20.833Z,29.10
2022-08-10T20:06:18.734Z,29.10
2022-08-10T20:09:29.233Z,29.00
2022-08-10T20:12:08.443Z,28.90
2022-08-10T20:14:58.335Z,28.90
2022-08-10T20:17:55.214Z,28.80
2022-08-10T20:20:49.679Z,28.70
2022-08-10T20:23:29.639Z,28.70
2022-08-10T20:26:05.413Z,28.60
2022-08-10T20:28:56.916Z,28.50
2022-08-10T20:31:28.808Z,28.40
2022-08-10T20:34:02.024Z,28.30
2022-08-10T20:36:33.870Z,28.30
2022-08-10T20:39:24.661Z,28.20
2022-08-10T20:42:03.419Z,28.10
2022-08-10T20:44:50.841Z,28.00
2022-08-10T20:47:54.163Z,28.00
2022-08-10T20:50:42.679Z,27.90
2022-08-10T20:53:19.040Z,27.80
2022-08-10T20:55:54.522Z,27.70
2022-08-10T20:58:42.651Z,27.60
2022-08-10T21:01:18.153Z,27.60
2022-08-10T21:04:03.214Z,27.50
2022-08-10T21:07:28.277Z,27.50
2022-08-10T21:10:17.258Z,27.30
2022-08-10T21:12:49.697Z,27.30
2022-08-10T21:15:41.693Z,27.20
2022-08-10T21:18:43.879Z,27.10
2022-08-10T21:21:16.599Z,27.10
2022-08-10T21:23:50.378Z,27.10
2022-08-10T21:26:35.425Z,27.00
2022-08-10T21:29:39.800Z,26.90
2022-08-10T21:32:31.777Z,26.80
2022-08-10T21:35:37.688Z,26.80
2022-08-10T21:38:08.073Z,26.70
2022-08-10T21:41:17.790Z,26.70
2022-08-10T21:44:25.138Z,26.60
2022-08-10T21:47:40.013Z,26.40
2022-08-10T21:50:28.548Z,26.40
2022-08-10T21:53:43.917Z,26.40
2022-08-10T21:56:44.471Z,26.30
2022-08-10T22:00:11.889Z,26.30
2022-08-10T22:02:58.490Z,26.30
2022-08-10T22:05:53.797Z,26.20
2022-08-10T22:08:44.400Z,26.20
2022-08-10T22:11:37.274Z,26.20
2022-08-10T22:14:26.943Z,26.20
2022-08-10T22:18:01.185Z,26.20
2022-08-10T22:20:35.515Z,26.20
2022-08-10T22:23:38.402Z,26.10
2022-08-10T22:27:00.979Z,26.10
2022-08-10T22:30:04.306Z,26.00
2022-08-10T22:33:14.871Z,26.00
2022-08-10T22:36:14.260Z,25.90
2022-08-10T22:40:13.208Z,25.90
2022-08-10T22:42:58.767Z,25.90
2022-08-10T22:45:54.840Z,25.80
2022-08-10T22:48:40.765Z,25.80
2022-08-10T22:51:20.754Z,25.80
2022-08-10T22:54:30.612Z,25.70
2022-08-10T22:57:19.872Z,25.70
2022-08-10T22:59:49.231Z,25.60
2022-08-10T23:02:28.728Z,25.60
2022-08-10T23:05:01.893Z,25.60
2022-08-10T23:07:31.929Z,25.60
2022-08-10T23:10:08.849Z,25.50
2022-08-10T23:12:48.030Z,25.40
2022-08-10T23:15:54.260Z,25.40
2022-08-10T23:18:58.084Z,25.30
2022-08-10T23:22:03.152Z,25.30
2022-08-10T23:24:26.571Z,25.20
2022-08-10T23:26:55.060Z,25.20
2022-08-10T23:29:23.784Z,25.20
2022-08-10T23:32:07.578Z,25.10
2022-08-10T23:34:36.719Z,25.20
2022-08-10T23:37:07.939Z,25.10
2022-08-10T23:39:41.899Z,25.00
2022-08-10T23:42:20.392Z,25.00
2022-08-10T23:44:53.111Z,24.90
2022-08-10T23:47:23.071Z,24.90
2022-08-10T23:49:52.163Z,24.80
2022-08-10T23:52:22.630Z,24.80
2022-08-10T23:55:03.196Z,24.80
2022-08-10T23:57:32.583Z,24.80
